sensor_id;sensor_type;location;lat;lon;timestamp;P1;durP1;ratioP1;P2;durP2;ratioP2
14528;SDS011;7351;51.194;4.098;2022-07-09T00:01:31;35.60;;;32.47;;
14528;SDS011;7351;51.194;4.098;2022-07-09T00:03:59;35.23;;;32.57;;
14528;SDS011;7351;51.194;4.098;2022-07-09T00:06:26;35.20;;;32.70;;
14528;SDS011;7351;51.194;4.098;2022-07-09T00:08:53;34.90;;;32.43;;
14528;SDS011;7351;51.194;4.098;2022-07-09T00:11:20;33.87;;;31.17;;
14528;SDS011;7351;51.194;4.098;2022-07-09T00:13:47;36.43;;;33.90;;
14528;SDS011;7351;51.194;4.098;2022-07-09T00:16:14;36.70;;;33.83;;
14528;SDS011;7351;51.194;4.098;2022-07-09T00:18:41;36.13;;;33.27;;
14528;SDS011;7351;51.194;4.098;2022-07-09T00:21:09;35.87;;;33.10;;
14528;SDS011;7351;51.194;4.098;2022-07-09T00:23:38;36.97;;;34.07;;
14528;SDS011;7351;51.194;4.098;2022-07-09T00:26:05;34.57;;;32.17;;
14528;SDS011;7351;51.194;4.098;2022-07-09T00:28:32;31.60;;;29.33;;
14528;SDS011;7351;51.194;4.098;2022-07-09T00:30:59;30.23;;;28.13;;
14528;SDS011;7351;51.194;4.098;2022-07-09T00:33:26;32.60;;;30.03;;
14528;SDS011;7351;51.194;4.098;2022-07-09T00:35:53;34.10;;;31.53;;
14528;SDS011;7351;51.194;4.098;2022-07-09T00:38:21;33.97;;;31.57;;
14528;SDS011;7351;51.194;4.098;2022-07-09T00:40:48;31.70;;;29.40;;
14528;SDS011;7351;51.194;4.098;2022-07-09T00:43:16;32.47;;;29.97;;
14528;SDS011;7351;51.194;4.098;2022-07-09T00:45:43;33.10;;;30.70;;
14528;SDS011;7351;51.194;4.098;2022-07-09T00:48:11;32.70;;;30.63;;
14528;SDS011;7351;51.194;4.098;2022-07-09T00:50:38;36.27;;;32.77;;
14528;SDS011;7351;51.194;4.098;2022-07-09T00:53:06;35.27;;;31.97;;
14528;SDS011;7351;51.194;4.098;2022-07-09T00:55:36;34.60;;;31.67;;
14528;SDS011;7351;51.194;4.098;2022-07-09T00:58:04;33.27;;;30.20;;
14528;SDS011;7351;51.194;4.098;2022-07-09T01:00:32;36.17;;;33.33;;
14528;SDS011;7351;51.194;4.098;2022-07-09T01:03:00;33.00;;;30.37;;
14528;SDS011;7351;51.194;4.098;2022-07-09T01:05:27;31.03;;;28.73;;
14528;SDS011;7351;51.194;4.098;2022-07-09T01:08:00;35.13;;;32.83;;
14528;SDS011;7351;51.194;4.098;2022-07-09T01:10:28;33.93;;;31.50;;
14528;SDS011;7351;51.194;4.098;2022-07-09T01:12:56;33.87;;;31.63;;
14528;SDS011;7351;51.194;4.098;2022-07-09T01:15:23;34.33;;;31.90;;
14528;SDS011;7351;51.194;4.098;2022-07-09T01:17:51;35.13;;;32.30;;
14528;SDS011;7351;51.194;4.098;2022-07-09T01:20:22;35.30;;;32.80;;
14528;SDS011;7351;51.194;4.098;2022-07-09T01:22:50;37.27;;;34.73;;
14528;SDS011;7351;51.194;4.098;2022-07-09T01:25:20;35.47;;;32.37;;
14528;SDS011;7351;51.194;4.098;2022-07-09T01:27:54;36.93;;;34.00;;
14528;SDS011;7351;51.194;4.098;2022-07-09T01:30:24;36.43;;;33.53;;
14528;SDS011;7351;51.194;4.098;2022-07-09T01:32:52;37.60;;;34.70;;
14528;SDS011;7351;51.194;4.098;2022-07-09T01:35:19;36.47;;;33.37;;
14528;SDS011;7351;51.194;4.098;2022-07-09T01:37:48;39.23;;;35.63;;
14528;SDS011;7351;51.194;4.098;2022-07-09T01:40:15;37.33;;;34.40;;
14528;SDS011;7351;51.194;4.098;2022-07-09T01:42:42;35.93;;;33.23;;
14528;SDS011;7351;51.194;4.098;2022-07-09T01:45:09;35.83;;;32.70;;
14528;SDS011;7351;51.194;4.098;2022-07-09T01:47:37;36.23;;;33.20;;
14528;SDS011;7351;51.194;4.098;2022-07-09T01:50:04;37.00;;;34.33;;
14528;SDS011;7351;51.194;4.098;2022-07-09T01:52:32;38.47;;;35.53;;
14528;SDS011;7351;51.194;4.098;2022-07-09T01:55:00;38.27;;;35.50;;
14528;SDS011;7351;51.194;4.098;2022-07-09T01:57:27;38.00;;;35.33;;
14528;SDS011;7351;51.194;4.098;2022-07-09T01:59:54;39.60;;;36.83;;
14528;SDS011;7351;51.194;4.098;2022-07-09T02:02:21;39.13;;;35.87;;
14528;SDS011;7351;51.194;4.098;2022-07-09T02:04:48;39.77;;;37.10;;
14528;SDS011;7351;51.194;4.098;2022-07-09T02:07:15;39.63;;;36.83;;
14528;SDS011;7351;51.194;4.098;2022-07-09T02:09:42;40.60;;;37.57;;
14528;SDS011;7351;51.194;4.098;2022-07-09T02:12:10;39.77;;;36.80;;
14528;SDS011;7351;51.194;4.098;2022-07-09T02:14:37;40.37;;;37.60;;
14528;SDS011;7351;51.194;4.098;2022-07-09T02:17:04;41.83;;;38.53;;
14528;SDS011;7351;51.194;4.098;2022-07-09T02:19:34;45.13;;;41.97;;
14528;SDS011;7351;51.194;4.098;2022-07-09T02:22:01;44.83;;;40.97;;
14528;SDS011;7351;51.194;4.098;2022-07-09T02:24:28;41.73;;;38.57;;
14528;SDS011;7351;51.194;4.098;2022-07-09T02:26:55;42.30;;;39.00;;
14528;SDS011;7351;51.194;4.098;2022-07-09T02:29:23;44.17;;;41.03;;
14528;SDS011;7351;51.194;4.098;2022-07-09T02:31:50;41.23;;;37.97;;
14528;SDS011;7351;51.194;4.098;2022-07-09T02:34:20;42.00;;;38.70;;
14528;SDS011;7351;51.194;4.098;2022-07-09T02:36:47;39.87;;;36.83;;
14528;SDS011;7351;51.194;4.098;2022-07-09T02:39:14;40.30;;;37.73;;
14528;SDS011;7351;51.194;4.098;2022-07-09T02:41:41;43.10;;;40.10;;
14528;SDS011;7351;51.194;4.098;2022-07-09T02:44:08;43.03;;;40.07;;
14528;SDS011;7351;51.194;4.098;2022-07-09T02:46:36;42.37;;;39.57;;
14528;SDS011;7351;51.194;4.098;2022-07-09T02:49:03;43.67;;;40.77;;
14528;SDS011;7351;51.194;4.098;2022-07-09T02:51:30;44.40;;;40.57;;
14528;SDS011;7351;51.194;4.098;2022-07-09T02:53:57;44.63;;;41.37;;
14528;SDS011;7351;51.194;4.098;2022-07-09T02:56:24;48.00;;;44.47;;
14528;SDS011;7351;51.194;4.098;2022-07-09T02:58:51;47.57;;;44.03;;
14528;SDS011;7351;51.194;4.098;2022-07-09T03:01:18;46.60;;;43.20;;
14528;SDS011;7351;51.194;4.098;2022-07-09T03:03:46;49.37;;;44.33;;
14528;SDS011;7351;51.194;4.098;2022-07-09T03:06:13;46.10;;;42.57;;
14528;SDS011;7351;51.194;4.098;2022-07-09T03:08:40;47.03;;;43.20;;
14528;SDS011;7351;51.194;4.098;2022-07-09T03:11:07;47.40;;;44.30;;
14528;SDS011;7351;51.194;4.098;2022-07-09T03:13:34;50.10;;;46.30;;
14528;SDS011;7351;51.194;4.098;2022-07-09T03:16:01;48.30;;;44.77;;
14528;SDS011;7351;51.194;4.098;2022-07-09T03:18:28;48.37;;;44.73;;
14528;SDS011;7351;51.194;4.098;2022-07-09T03:20:57;50.37;;;46.37;;
14528;SDS011;7351;51.194;4.098;2022-07-09T03:23:24;52.90;;;48.57;;
14528;SDS011;7351;51.194;4.098;2022-07-09T03:25:51;49.60;;;45.87;;
14528;SDS011;7351;51.194;4.098;2022-07-09T03:28:18;48.87;;;45.30;;
14528;SDS011;7351;51.194;4.098;2022-07-09T03:30:45;50.97;;;47.33;;
14528;SDS011;7351;51.194;4.098;2022-07-09T03:33:12;48.77;;;45.37;;
14528;SDS011;7351;51.194;4.098;2022-07-09T03:35:39;50.50;;;46.47;;
14528;SDS011;7351;51.194;4.098;2022-07-09T03:38:07;51.23;;;46.97;;
14528;SDS011;7351;51.194;4.098;2022-07-09T03:40:34;49.50;;;45.83;;
14528;SDS011;7351;51.194;4.098;2022-07-09T03:43:01;48.67;;;45.13;;
14528;SDS011;7351;51.194;4.098;2022-07-09T03:45:28;48.67;;;45.00;;
14528;SDS011;7351;51.194;4.098;2022-07-09T03:47:55;47.87;;;44.67;;
14528;SDS011;7351;51.194;4.098;2022-07-09T03:50:22;50.27;;;46.43;;
14528;SDS011;7351;51.194;4.098;2022-07-09T03:52:49;51.67;;;48.07;;
14528;SDS011;7351;51.194;4.098;2022-07-09T03:55:17;52.97;;;48.83;;
14528;SDS011;7351;51.194;4.098;2022-07-09T03:57:44;52.17;;;48.03;;
14528;SDS011;7351;51.194;4.098;2022-07-09T04:00:12;53.43;;;48.93;;
14528;SDS011;7351;51.194;4.098;2022-07-09T04:02:39;53.03;;;49.30;;
14528;SDS011;7351;51.194;4.098;2022-07-09T04:05:06;54.83;;;50.40;;
14528;SDS011;7351;51.194;4.098;2022-07-09T04:07:34;56.43;;;52.03;;
14528;SDS011;7351;51.194;4.098;2022-07-09T04:10:02;53.47;;;49.90;;
14528;SDS011;7351;51.194;4.098;2022-07-09T04:12:31;56.63;;;52.23;;
14528;SDS011;7351;51.194;4.098;2022-07-09T04:14:58;56.27;;;51.63;;
14528;SDS011;7351;51.194;4.098;2022-07-09T04:17:25;55.83;;;51.87;;
14528;SDS011;7351;51.194;4.098;2022-07-09T04:19:52;54.37;;;49.93;;
14528;SDS011;7351;51.194;4.098;2022-07-09T04:22:20;53.57;;;49.47;;
14528;SDS011;7351;51.194;4.098;2022-07-09T04:24:47;54.53;;;50.23;;
14528;SDS011;7351;51.194;4.098;2022-07-09T04:27:13;55.00;;;50.70;;
14528;SDS011;7351;51.194;4.098;2022-07-09T04:29:42;57.47;;;53.13;;
14528;SDS011;7351;51.194;4.098;2022-07-09T04:32:09;56.70;;;51.67;;
14528;SDS011;7351;51.194;4.098;2022-07-09T04:34:36;56.77;;;52.73;;
14528;SDS011;7351;51.194;4.098;2022-07-09T04:37:03;55.63;;;50.93;;
14528;SDS011;7351;51.194;4.098;2022-07-09T04:39:30;52.43;;;48.57;;
14528;SDS011;7351;51.194;4.098;2022-07-09T04:41:57;51.93;;;47.63;;
14528;SDS011;7351;51.194;4.098;2022-07-09T04:44:24;54.23;;;49.23;;
14528;SDS011;7351;51.194;4.098;2022-07-09T04:46:53;53.03;;;48.53;;
14528;SDS011;7351;51.194;4.098;2022-07-09T04:49:20;54.83;;;50.77;;
14528;SDS011;7351;51.194;4.098;2022-07-09T04:51:49;53.33;;;48.93;;
14528;SDS011;7351;51.194;4.098;2022-07-09T04:54:16;54.03;;;50.20;;
14528;SDS011;7351;51.194;4.098;2022-07-09T04:56:43;52.53;;;48.80;;
14528;SDS011;7351;51.194;4.098;2022-07-09T04:59:10;52.37;;;48.33;;
14528;SDS011;7351;51.194;4.098;2022-07-09T05:01:37;52.53;;;48.03;;
14528;SDS011;7351;51.194;4.098;2022-07-09T05:04:05;48.83;;;45.50;;
14528;SDS011;7351;51.194;4.098;2022-07-09T05:06:32;52.47;;;48.57;;
14528;SDS011;7351;51.194;4.098;2022-07-09T05:08:59;53.17;;;48.97;;
14528;SDS011;7351;51.194;4.098;2022-07-09T05:11:26;48.20;;;44.83;;
14528;SDS011;7351;51.194;4.098;2022-07-09T05:13:53;48.23;;;44.73;;
14528;SDS011;7351;51.194;4.098;2022-07-09T05:16:20;49.63;;;46.07;;
14528;SDS011;7351;51.194;4.098;2022-07-09T05:18:47;49.47;;;45.57;;
14528;SDS011;7351;51.194;4.098;2022-07-09T05:21:16;49.53;;;45.60;;
14528;SDS011;7351;51.194;4.098;2022-07-09T05:23:43;48.27;;;44.43;;
14528;SDS011;7351;51.194;4.098;2022-07-09T05:26:09;49.47;;;45.03;;
14528;SDS011;7351;51.194;4.098;2022-07-09T05:28:37;46.93;;;43.63;;
14528;SDS011;7351;51.194;4.098;2022-07-09T05:31:04;44.50;;;41.30;;
14528;SDS011;7351;51.194;4.098;2022-07-09T05:33:32;44.13;;;40.60;;
14528;SDS011;7351;51.194;4.098;2022-07-09T05:35:59;45.90;;;42.27;;
14528;SDS011;7351;51.194;4.098;2022-07-09T05:38:27;43.97;;;40.43;;
14528;SDS011;7351;51.194;4.098;2022-07-09T05:40:54;43.20;;;39.50;;
14528;SDS011;7351;51.194;4.098;2022-07-09T05:43:22;43.10;;;39.33;;
14528;SDS011;7351;51.194;4.098;2022-07-09T05:45:49;39.73;;;36.97;;
14528;SDS011;7351;51.194;4.098;2022-07-09T05:48:16;40.17;;;37.17;;
14528;SDS011;7351;51.194;4.098;2022-07-09T05:50:43;40.87;;;37.60;;
14528;SDS011;7351;51.194;4.098;2022-07-09T05:53:10;43.40;;;39.83;;
14528;SDS011;7351;51.194;4.098;2022-07-09T05:55:38;42.77;;;39.60;;
14528;SDS011;7351;51.194;4.098;2022-07-09T05:58:05;43.83;;;39.90;;
14528;SDS011;7351;51.194;4.098;2022-07-09T06:00:32;40.40;;;37.37;;
14528;SDS011;7351;51.194;4.098;2022-07-09T06:02:59;40.77;;;37.30;;
14528;SDS011;7351;51.194;4.098;2022-07-09T06:05:26;37.53;;;34.83;;
14528;SDS011;7351;51.194;4.098;2022-07-09T06:07:54;37.97;;;34.90;;
14528;SDS011;7351;51.194;4.098;2022-07-09T06:10:21;35.30;;;32.73;;
14528;SDS011;7351;51.194;4.098;2022-07-09T06:12:49;35.70;;;32.97;;
14528;SDS011;7351;51.194;4.098;2022-07-09T06:15:16;35.93;;;32.70;;
14528;SDS011;7351;51.194;4.098;2022-07-09T06:17:43;35.63;;;32.60;;
14528;SDS011;7351;51.194;4.098;2022-07-09T06:20:10;33.53;;;31.17;;
14528;SDS011;7351;51.194;4.098;2022-07-09T06:22:37;32.73;;;30.00;;
14528;SDS011;7351;51.194;4.098;2022-07-09T06:25:05;38.20;;;34.23;;
14528;SDS011;7351;51.194;4.098;2022-07-09T06:27:32;34.80;;;32.30;;
14528;SDS011;7351;51.194;4.098;2022-07-09T06:30:00;35.33;;;32.33;;
14528;SDS011;7351;51.194;4.098;2022-07-09T06:32:28;36.57;;;33.27;;
14528;SDS011;7351;51.194;4.098;2022-07-09T06:34:54;36.03;;;33.13;;
14528;SDS011;7351;51.194;4.098;2022-07-09T06:37:21;35.13;;;32.83;;
14528;SDS011;7351;51.194;4.098;2022-07-09T06:39:48;36.17;;;33.20;;
14528;SDS011;7351;51.194;4.098;2022-07-09T06:42:16;37.10;;;34.60;;
14528;SDS011;7351;51.194;4.098;2022-07-09T06:44:44;37.43;;;34.80;;
14528;SDS011;7351;51.194;4.098;2022-07-09T06:47:12;34.43;;;31.97;;
14528;SDS011;7351;51.194;4.098;2022-07-09T06:49:39;36.07;;;33.10;;
14528;SDS011;7351;51.194;4.098;2022-07-09T06:52:07;38.90;;;35.97;;
14528;SDS011;7351;51.194;4.098;2022-07-09T06:54:34;37.80;;;35.13;;
14528;SDS011;7351;51.194;4.098;2022-07-09T06:57:01;35.40;;;32.97;;
14528;SDS011;7351;51.194;4.098;2022-07-09T06:59:29;36.27;;;33.23;;
14528;SDS011;7351;51.194;4.098;2022-07-09T07:01:56;37.33;;;34.37;;
14528;SDS011;7351;51.194;4.098;2022-07-09T07:04:24;37.83;;;34.97;;
14528;SDS011;7351;51.194;4.098;2022-07-09T07:06:51;38.20;;;35.40;;
14528;SDS011;7351;51.194;4.098;2022-07-09T07:09:19;40.87;;;37.53;;
14528;SDS011;7351;51.194;4.098;2022-07-09T07:11:47;40.50;;;37.73;;
14528;SDS011;7351;51.194;4.098;2022-07-09T07:14:15;42.07;;;38.60;;
14528;SDS011;7351;51.194;4.098;2022-07-09T07:16:42;44.23;;;40.73;;
14528;SDS011;7351;51.194;4.098;2022-07-09T07:19:09;43.57;;;40.17;;
14528;SDS011;7351;51.194;4.098;2022-07-09T07:21:38;45.33;;;42.03;;
14528;SDS011;7351;51.194;4.098;2022-07-09T07:24:05;45.30;;;41.67;;
14528;SDS011;7351;51.194;4.098;2022-07-09T07:26:33;48.57;;;44.60;;
14528;SDS011;7351;51.194;4.098;2022-07-09T07:29:01;46.43;;;42.73;;
14528;SDS011;7351;51.194;4.098;2022-07-09T07:31:28;47.97;;;44.17;;
14528;SDS011;7351;51.194;4.098;2022-07-09T07:33:56;45.93;;;42.33;;
14528;SDS011;7351;51.194;4.098;2022-07-09T07:36:24;52.40;;;47.90;;
14528;SDS011;7351;51.194;4.098;2022-07-09T07:38:53;52.67;;;48.43;;
14528;SDS011;7351;51.194;4.098;2022-07-09T07:41:20;51.87;;;47.77;;
14528;SDS011;7351;51.194;4.098;2022-07-09T07:43:47;49.10;;;45.30;;
14528;SDS011;7351;51.194;4.098;2022-07-09T07:46:14;51.17;;;47.37;;
14528;SDS011;7351;51.194;4.098;2022-07-09T07:48:41;50.07;;;46.07;;
14528;SDS011;7351;51.194;4.098;2022-07-09T07:51:09;47.90;;;44.07;;
14528;SDS011;7351;51.194;4.098;2022-07-09T07:53:37;55.33;;;50.80;;
14528;SDS011;7351;51.194;4.098;2022-07-09T07:56:06;51.13;;;47.13;;
14528;SDS011;7351;51.194;4.098;2022-07-09T07:58:34;54.03;;;49.87;;
14528;SDS011;7351;51.194;4.098;2022-07-09T08:01:01;52.27;;;48.07;;
14528;SDS011;7351;51.194;4.098;2022-07-09T08:03:28;57.63;;;52.93;;
14528;SDS011;7351;51.194;4.098;2022-07-09T08:05:55;49.60;;;45.63;;
14528;SDS011;7351;51.194;4.098;2022-07-09T08:08:22;49.27;;;45.70;;
14528;SDS011;7351;51.194;4.098;2022-07-09T08:10:49;48.07;;;44.43;;
14528;SDS011;7351;51.194;4.098;2022-07-09T08:13:18;44.23;;;40.70;;
14528;SDS011;7351;51.194;4.098;2022-07-09T08:15:44;43.47;;;39.77;;
14528;SDS011;7351;51.194;4.098;2022-07-09T08:18:11;42.97;;;39.57;;
14528;SDS011;7351;51.194;4.098;2022-07-09T08:20:39;44.37;;;40.70;;
14528;SDS011;7351;51.194;4.098;2022-07-09T08:23:07;40.83;;;37.53;;
14528;SDS011;7351;51.194;4.098;2022-07-09T08:25:34;44.57;;;41.10;;
14528;SDS011;7351;51.194;4.098;2022-07-09T08:28:02;42.47;;;39.13;;
14528;SDS011;7351;51.194;4.098;2022-07-09T08:30:30;42.53;;;39.27;;
14528;SDS011;7351;51.194;4.098;2022-07-09T08:32:57;42.17;;;38.60;;
14528;SDS011;7351;51.194;4.098;2022-07-09T08:35:24;38.73;;;35.73;;
14528;SDS011;7351;51.194;4.098;2022-07-09T08:37:52;33.73;;;31.37;;
14528;SDS011;7351;51.194;4.098;2022-07-09T08:40:19;31.03;;;28.83;;
14528;SDS011;7351;51.194;4.098;2022-07-09T08:42:47;32.00;;;29.53;;
14528;SDS011;7351;51.194;4.098;2022-07-09T08:45:14;32.23;;;29.43;;
14528;SDS011;7351;51.194;4.098;2022-07-09T08:47:45;28.80;;;26.50;;
14528;SDS011;7351;51.194;4.098;2022-07-09T08:50:12;27.23;;;25.13;;
14528;SDS011;7351;51.194;4.098;2022-07-09T08:52:40;22.80;;;21.10;;
14528;SDS011;7351;51.194;4.098;2022-07-09T08:55:08;18.83;;;17.47;;
14528;SDS011;7351;51.194;4.098;2022-07-09T08:57:36;20.87;;;19.27;;
14528;SDS011;7351;51.194;4.098;2022-07-09T09:00:03;18.57;;;16.97;;
14528;SDS011;7351;51.194;4.098;2022-07-09T09:02:33;17.70;;;16.10;;
14528;SDS011;7351;51.194;4.098;2022-07-09T09:05:07;17.43;;;15.93;;
14528;SDS011;7351;51.194;4.098;2022-07-09T09:07:35;15.90;;;14.40;;
14528;SDS011;7351;51.194;4.098;2022-07-09T09:10:02;14.73;;;13.47;;
14528;SDS011;7351;51.194;4.098;2022-07-09T09:12:30;12.40;;;11.23;;
14528;SDS011;7351;51.194;4.098;2022-07-09T09:14:57;12.80;;;11.60;;
14528;SDS011;7351;51.194;4.098;2022-07-09T09:17:25;7.97;;;7.37;;
14528;SDS011;7351;51.194;4.098;2022-07-09T09:19:52;6.90;;;6.30;;
14528;SDS011;7351;51.194;4.098;2022-07-09T09:22:20;4.43;;;4.13;;
14528;SDS011;7351;51.194;4.098;2022-07-09T09:24:50;5.37;;;4.83;;
14528;SDS011;7351;51.194;4.098;2022-07-09T09:27:18;5.50;;;5.07;;
14528;SDS011;7351;51.194;4.098;2022-07-09T09:29:56;8.67;;;4.30;;
14528;SDS011;7351;51.194;4.098;2022-07-09T09:32:24;4.37;;;3.27;;
14528;SDS011;7351;51.194;4.098;2022-07-09T09:34:51;6.23;;;4.50;;
14528;SDS011;7351;51.194;4.098;2022-07-09T09:37:26;5.17;;;3.80;;
14528;SDS011;7351;51.194;4.098;2022-07-09T09:39:53;5.60;;;4.97;;
14528;SDS011;7351;51.194;4.098;2022-07-09T09:42:21;7.20;;;6.60;;
14528;SDS011;7351;51.194;4.098;2022-07-09T09:44:50;4.90;;;4.23;;
14528;SDS011;7351;51.194;4.098;2022-07-09T09:47:19;3.40;;;2.70;;
14528;SDS011;7351;51.194;4.098;2022-07-09T09:49:49;2.80;;;2.60;;
14528;SDS011;7351;51.194;4.098;2022-07-09T09:52:16;2.53;;;2.33;;
14528;SDS011;7351;51.194;4.098;2022-07-09T09:54:47;3.93;;;2.00;;
14528;SDS011;7351;51.194;4.098;2022-07-09T09:57:15;4.60;;;2.47;;
14528;SDS011;7351;51.194;4.098;2022-07-09T09:59:44;2.70;;;2.50;;
14528;SDS011;7351;51.194;4.098;2022-07-09T10:02:12;3.37;;;2.33;;
14528;SDS011;7351;51.194;4.098;2022-07-09T10:04:40;2.43;;;2.23;;
14528;SDS011;7351;51.194;4.098;2022-07-09T10:07:08;4.93;;;2.07;;
14528;SDS011;7351;51.194;4.098;2022-07-09T10:09:37;1.70;;;1.60;;
14528;SDS011;7351;51.194;4.098;2022-07-09T10:12:06;2.43;;;2.23;;
14528;SDS011;7351;51.194;4.098;2022-07-09T10:14:36;2.67;;;2.17;;
14528;SDS011;7351;51.194;4.098;2022-07-09T10:17:11;3.97;;;1.80;;
14528;SDS011;7351;51.194;4.098;2022-07-09T10:19:49;3.43;;;1.63;;
14528;SDS011;7351;51.194;4.098;2022-07-09T10:22:18;1.87;;;1.70;;
14528;SDS011;7351;51.194;4.098;2022-07-09T10:24:45;2.97;;;2.40;;
14528;SDS011;7351;51.194;4.098;2022-07-09T10:27:14;4.27;;;3.20;;
14528;SDS011;7351;51.194;4.098;2022-07-09T10:32:26;3.13;;;2.27;;
14528;SDS011;7351;51.194;4.098;2022-07-09T10:34:56;4.17;;;2.23;;
14528;SDS011;7351;51.194;4.098;2022-07-09T10:37:34;2.00;;;1.80;;
14528;SDS011;7351;51.194;4.098;2022-07-09T10:40:09;2.17;;;1.60;;
14528;SDS011;7351;51.194;4.098;2022-07-09T10:42:41;6.27;;;2.27;;
14528;SDS011;7351;51.194;4.098;2022-07-09T10:45:19;1.50;;;1.40;;
14528;SDS011;7351;51.194;4.098;2022-07-09T10:47:54;3.60;;;1.53;;
14528;SDS011;7351;51.194;4.098;2022-07-09T10:50:22;2.77;;;1.83;;
14528;SDS011;7351;51.194;4.098;2022-07-09T10:52:50;3.13;;;1.87;;
14528;SDS011;7351;51.194;4.098;2022-07-09T10:55:18;8.67;;;2.10;;
14528;SDS011;7351;51.194;4.098;2022-07-09T10:57:47;2.30;;;1.30;;
14528;SDS011;7351;51.194;4.098;2022-07-09T11:00:14;2.20;;;1.80;;
14528;SDS011;7351;51.194;4.098;2022-07-09T11:02:51;4.00;;;1.53;;
14528;SDS011;7351;51.194;4.098;2022-07-09T11:05:19;2.88;;;1.73;;
14528;SDS011;7351;51.194;4.098;2022-07-09T11:08:00;1.77;;;1.50;;
14528;SDS011;7351;51.194;4.098;2022-07-09T11:10:29;1.93;;;1.40;;
14528;SDS011;7351;51.194;4.098;2022-07-09T11:12:59;4.80;;;1.83;;
14528;SDS011;7351;51.194;4.098;2022-07-09T11:15:27;3.30;;;1.40;;
14528;SDS011;7351;51.194;4.098;2022-07-09T11:17:59;4.93;;;2.07;;
14528;SDS011;7351;51.194;4.098;2022-07-09T11:20:27;1.83;;;1.63;;
14528;SDS011;7351;51.194;4.098;2022-07-09T11:22:54;2.30;;;2.00;;
14528;SDS011;7351;51.194;4.098;2022-07-09T11:25:23;2.53;;;1.83;;
14528;SDS011;7351;51.194;4.098;2022-07-09T11:27:53;3.25;;;1.88;;
14528;SDS011;7351;51.194;4.098;2022-07-09T11:30:22;3.10;;;2.17;;
14528;SDS011;7351;51.194;4.098;2022-07-09T11:32:50;1.63;;;1.53;;
14528;SDS011;7351;51.194;4.098;2022-07-09T11:35:24;3.00;;;2.67;;
14528;SDS011;7351;51.194;4.098;2022-07-09T11:37:52;3.00;;;1.37;;
14528;SDS011;7351;51.194;4.098;2022-07-09T11:40:20;4.23;;;1.60;;
14528;SDS011;7351;51.194;4.098;2022-07-09T11:42:47;2.33;;;1.67;;
14528;SDS011;7351;51.194;4.098;2022-07-09T11:45:19;4.77;;;2.90;;
14528;SDS011;7351;51.194;4.098;2022-07-09T11:47:49;3.83;;;1.50;;
14528;SDS011;7351;51.194;4.098;2022-07-09T11:50:17;3.27;;;1.70;;
14528;SDS011;7351;51.194;4.098;2022-07-09T11:52:45;3.87;;;1.70;;
14528;SDS011;7351;51.194;4.098;2022-07-09T11:55:14;3.73;;;2.17;;
14528;SDS011;7351;51.194;4.098;2022-07-09T11:57:53;4.90;;;2.20;;
14528;SDS011;7351;51.194;4.098;2022-07-09T12:00:23;2.17;;;1.60;;
14528;SDS011;7351;51.194;4.098;2022-07-09T12:02:52;4.43;;;1.80;;
14528;SDS011;7351;51.194;4.098;2022-07-09T12:05:28;2.50;;;2.03;;
14528;SDS011;7351;51.194;4.098;2022-07-09T12:08:06;8.47;;;2.13;;
14528;SDS011;7351;51.194;4.098;2022-07-09T12:10:34;3.07;;;1.60;;
14528;SDS011;7351;51.194;4.098;2022-07-09T12:13:03;4.07;;;1.47;;
14528;SDS011;7351;51.194;4.098;2022-07-09T12:15:33;1.87;;;1.17;;
14528;SDS011;7351;51.194;4.098;2022-07-09T12:18:00;3.87;;;2.17;;
14528;SDS011;7351;51.194;4.098;2022-07-09T12:20:28;3.00;;;1.63;;
14528;SDS011;7351;51.194;4.098;2022-07-09T12:22:56;3.30;;;1.87;;
14528;SDS011;7351;51.194;4.098;2022-07-09T12:25:23;2.60;;;2.00;;
14528;SDS011;7351;51.194;4.098;2022-07-09T12:27:50;3.13;;;1.50;;
14528;SDS011;7351;51.194;4.098;2022-07-09T12:30:17;1.70;;;1.10;;
14528;SDS011;7351;51.194;4.098;2022-07-09T12:32:47;1.93;;;1.10;;
14528;SDS011;7351;51.194;4.098;2022-07-09T12:35:15;5.97;;;1.90;;
14528;SDS011;7351;51.194;4.098;2022-07-09T12:37:42;4.83;;;1.90;;
14528;SDS011;7351;51.194;4.098;2022-07-09T12:40:10;2.63;;;1.20;;
14528;SDS011;7351;51.194;4.098;2022-07-09T12:42:38;4.13;;;2.20;;
14528;SDS011;7351;51.194;4.098;2022-07-09T12:45:05;4.93;;;1.47;;
14528;SDS011;7351;51.194;4.098;2022-07-09T12:47:33;6.17;;;1.77;;
14528;SDS011;7351;51.194;4.098;2022-07-09T12:50:02;7.90;;;2.37;;
14528;SDS011;7351;51.194;4.098;2022-07-09T12:52:30;3.07;;;1.60;;
14528;SDS011;7351;51.194;4.098;2022-07-09T12:54:57;1.47;;;1.37;;
14528;SDS011;7351;51.194;4.098;2022-07-09T12:57:25;2.70;;;1.47;;
14528;SDS011;7351;51.194;4.098;2022-07-09T12:59:52;2.70;;;2.07;;
14528;SDS011;7351;51.194;4.098;2022-07-09T13:02:19;6.60;;;1.87;;
14528;SDS011;7351;51.194;4.098;2022-07-09T13:04:46;3.23;;;1.80;;
14528;SDS011;7351;51.194;4.098;2022-07-09T13:07:14;4.77;;;2.00;;
14528;SDS011;7351;51.194;4.098;2022-07-09T13:09:41;3.90;;;1.33;;
14528;SDS011;7351;51.194;4.098;2022-07-09T13:12:08;5.70;;;2.07;;
14528;SDS011;7351;51.194;4.098;2022-07-09T13:14:36;3.77;;;2.17;;
14528;SDS011;7351;51.194;4.098;2022-07-09T13:17:03;8.87;;;2.37;;
14528;SDS011;7351;51.194;4.098;2022-07-09T13:19:30;4.97;;;3.10;;
14528;SDS011;7351;51.194;4.098;2022-07-09T13:21:57;4.10;;;1.77;;
14528;SDS011;7351;51.194;4.098;2022-07-09T13:24:25;7.97;;;3.00;;
14528;SDS011;7351;51.194;4.098;2022-07-09T13:26:52;4.97;;;2.13;;
14528;SDS011;7351;51.194;4.098;2022-07-09T13:29:19;2.70;;;1.77;;
14528;SDS011;7351;51.194;4.098;2022-07-09T13:31:46;3.13;;;1.60;;
14528;SDS011;7351;51.194;4.098;2022-07-09T13:34:13;5.60;;;1.90;;
14528;SDS011;7351;51.194;4.098;2022-07-09T13:36:40;2.70;;;1.63;;
14528;SDS011;7351;51.194;4.098;2022-07-09T13:39:07;3.50;;;1.97;;
14528;SDS011;7351;51.194;4.098;2022-07-09T13:41:35;8.53;;;2.87;;
14528;SDS011;7351;51.194;4.098;2022-07-09T13:44:02;5.13;;;2.57;;
14528;SDS011;7351;51.194;4.098;2022-07-09T13:46:30;3.83;;;2.20;;
14528;SDS011;7351;51.194;4.098;2022-07-09T13:48:57;11.87;;;3.73;;
14528;SDS011;7351;51.194;4.098;2022-07-09T13:51:24;15.40;;;3.10;;
14528;SDS011;7351;51.194;4.098;2022-07-09T13:53:51;6.10;;;2.40;;
14528;SDS011;7351;51.194;4.098;2022-07-09T13:56:18;3.43;;;2.10;;
14528;SDS011;7351;51.194;4.098;2022-07-09T13:58:47;4.43;;;3.97;;
14528;SDS011;7351;51.194;4.098;2022-07-09T14:01:13;4.10;;;1.80;;
14528;SDS011;7351;51.194;4.098;2022-07-09T14:03:41;4.40;;;2.00;;
14528;SDS011;7351;51.194;4.098;2022-07-09T14:06:09;3.73;;;2.07;;
14528;SDS011;7351;51.194;4.098;2022-07-09T14:08:37;3.77;;;2.10;;
14528;SDS011;7351;51.194;4.098;2022-07-09T14:11:05;4.80;;;2.30;;
14528;SDS011;7351;51.194;4.098;2022-07-09T14:13:32;6.20;;;3.13;;
14528;SDS011;7351;51.194;4.098;2022-07-09T14:16:01;4.50;;;2.43;;
14528;SDS011;7351;51.194;4.098;2022-07-09T14:18:29;5.47;;;2.30;;
14528;SDS011;7351;51.194;4.098;2022-07-09T14:20:56;7.20;;;2.60;;
14528;SDS011;7351;51.194;4.098;2022-07-09T14:23:24;6.13;;;2.43;;
14528;SDS011;7351;51.194;4.098;2022-07-09T14:25:51;7.10;;;2.77;;
14528;SDS011;7351;51.194;4.098;2022-07-09T14:28:19;7.07;;;2.60;;
14528;SDS011;7351;51.194;4.098;2022-07-09T14:30:46;8.47;;;2.20;;
14528;SDS011;7351;51.194;4.098;2022-07-09T14:33:15;5.23;;;2.03;;
14528;SDS011;7351;51.194;4.098;2022-07-09T14:35:42;8.13;;;3.53;;
14528;SDS011;7351;51.194;4.098;2022-07-09T14:38:09;3.67;;;2.03;;
14528;SDS011;7351;51.194;4.098;2022-07-09T14:40:37;8.93;;;2.50;;
14528;SDS011;7351;51.194;4.098;2022-07-09T14:43:04;5.13;;;2.27;;
14528;SDS011;7351;51.194;4.098;2022-07-09T14:45:32;7.87;;;3.73;;
14528;SDS011;7351;51.194;4.098;2022-07-09T14:48:00;9.03;;;2.40;;
14528;SDS011;7351;51.194;4.098;2022-07-09T14:50:35;11.23;;;3.20;;